Time;durP1;ratioP1;P1;durP2;ratioP2;P2;SDS_P1;SDS_P2;PMS_P1;PMS_P2;Temp;Humidity;BMP_temperature;BMP_pressure;BME280_temperature;BME280_humidity;BME280_pressure;Samples;Min_cycle;Max_cycle;Signal;HPM_P1;HPM_P2
2022/03/02 00:01:35;;;;;;;10.05;4.68;;;;;;;2.62;41.02;100932.31;4457113;32;32679;-84
2022/03/02 00:04:04;;;;;;;8.35;3.87;;;;;;;2.62;40.25;100929.69;4465658;31;33806;-82
2022/03/02 00:06:31;;;;;;;10.25;4.70;;;;;;;2.54;40.56;100922.69;4458959;32;33596;-83
2022/03/02 00:08:59;;;;;;;9.35;4.45;;;;;;;2.54;40.75;100916.59;4471685;32;33643;-82
2022/03/02 00:11:27;;;;;;;6.35;4.45;;;;;;;2.44;41.58;100920.00;4459831;32;33694;-82
2022/03/02 00:13:55;;;;;;;14.32;5.70;;;;;;;2.49;41.14;100907.87;4458333;32;32277;-83
2022/03/02 00:16:23;;;;;;;15.40;5.68;;;;;;;2.34;41.96;100913.00;4473979;32;33883;-82
2022/03/02 00:18:51;;;;;;;16.55;6.35;;;;;;;2.43;41.65;100920.88;4458436;32;33747;-82
2022/03/02 00:21:18;;;;;;;16.75;6.80;;;;;;;2.39;41.92;100916.50;4458473;32;33677;-84
2022/03/02 00:23:46;;;;;;;9.20;5.00;;;;;;;2.46;41.72;100915.66;4468678;32;33926;-84
2022/03/02 00:26:14;;;;;;;8.30;3.65;;;;;;;2.34;42.19;100910.38;4459739;32;33742;-86
2022/03/02 00:28:41;;;;;;;12.75;5.12;;;;;;;2.24;42.53;100912.91;4464731;31;32914;-86
2022/03/02 00:31:09;;;;;;;8.02;4.55;;;;;;;2.36;42.49;100911.25;4466868;32;33242;-86
2022/03/02 00:33:37;;;;;;;9.65;4.70;;;;;;;2.22;42.78;100909.41;4481452;32;33429;-82
2022/03/02 00:36:05;;;;;;;13.23;5.07;;;;;;;2.25;43.03;100904.22;4471755;32;33975;-82
2022/03/02 00:38:33;;;;;;;8.68;4.18;;;;;;;2.11;43.42;100908.47;4461886;32;33064;-82
2022/03/02 00:41:00;;;;;;;7.37;3.87;;;;;;;2.16;42.91;100905.88;4471292;32;34026;-81
2022/03/02 00:43:28;;;;;;;13.50;4.47;;;;;;;2.13;42.80;100904.13;4471276;32;33809;-82
2022/03/02 00:45:56;;;;;;;13.18;4.68;;;;;;;1.97;43.11;100894.44;4460136;32;33305;-84
2022/03/02 00:48:24;;;;;;;11.05;4.55;;;;;;;2.18;42.69;100886.78;4463227;31;33203;-84
2022/03/02 00:50:52;;;;;;;12.95;5.43;;;;;;;2.31;42.30;100882.53;4482913;32;33597;-86
2022/03/02 00:53:19;;;;;;;11.52;4.60;;;;;;;2.24;41.88;100886.00;4462767;32;32330;-86
2022/03/02 00:55:47;;;;;;;14.07;5.37;;;;;;;2.21;41.59;100879.00;4457465;32;33833;-86
2022/03/02 00:58:15;;;;;;;11.23;4.45;;;;;;;2.01;41.87;100877.97;4465889;32;34034;-86
2022/03/02 01:00:42;;;;;;;9.45;4.85;;;;;;;2.01;42.19;100868.44;4468929;31;33783;-86
2022/03/02 01:03:11;;;;;;;13.18;4.50;;;;;;;2.01;41.76;100862.34;4456927;32;32164;-85
2022/03/02 01:05:39;;;;;;;9.27;4.15;;;;;;;1.92;41.80;100867.47;4456631;32;32805;-86
2022/03/02 01:08:07;;;;;;;8.63;4.05;;;;;;;2.05;41.62;100858.91;4461953;31;33928;-85
2022/03/02 01:10:34;;;;;;;13.60;4.32;;;;;;;1.99;41.97;100859.75;4454786;31;34164;-86
2022/03/02 01:13:02;;;;;;;8.88;4.30;;;;;;;1.85;42.02;100861.31;4448888;32;34099;-86
2022/03/02 01:15:30;;;;;;;13.07;3.97;;;;;;;2.01;41.45;100846.72;4469928;32;33045;-85
2022/03/02 01:17:57;;;;;;;7.65;3.90;;;;;;;1.88;42.26;100852.69;4467448;31;32902;-85
2022/03/02 01:20:25;;;;;;;10.73;4.20;;;;;;;2.14;41.39;100851.16;4463946;32;33022;-85
2022/03/02 01:22:52;;;;;;;8.32;3.75;;;;;;;1.92;41.94;100838.84;4458610;32;32293;-85
2022/03/02 01:25:20;;;;;;;10.52;3.78;;;;;;;1.79;41.92;100849.12;4446644;32;32923;-85
2022/03/02 01:27:48;;;;;;;8.60;4.53;;;;;;;1.76;42.19;100846.53;4458589;32;32868;-85
2022/03/02 01:30:15;;;;;;;7.65;3.03;;;;;;;1.82;42.51;100831.81;4460981;32;32390;-85
2022/03/02 01:32:44;;;;;;;12.52;3.72;;;;;;;1.82;42.90;100837.88;4457618;31;32415;-85
2022/03/02 01:35:12;;;;;;;8.70;4.12;;;;;;;1.84;42.47;100837.88;4458531;32;33820;-85
2022/03/02 01:37:39;;;;;;;12.18;4.22;;;;;;;1.74;42.66;100829.13;4453885;31;33687;-85
2022/03/02 01:40:09;;;;;;;6.35;3.85;;;;;;;1.62;43.45;100827.31;4456153;32;32783;-84
2022/03/02 01:42:41;;;;;;;11.02;4.12;;;;;;;1.81;42.86;100830.06;4459150;32;33930;-84
2022/03/02 01:45:11;;;;;;;11.80;3.78;;;;;;;1.65;42.91;100829.91;4457051;32;33403;-83
2022/03/02 01:47:39;;;;;;;10.10;3.90;;;;;;;1.52;43.69;100822.88;4470250;32;33656;-84
2022/03/02 01:50:10;;;;;;;8.20;4.15;;;;;;;1.56;43.33;100826.34;4458141;32;33206;-84
2022/03/02 01:52:40;;;;;;;9.90;3.53;;;;;;;1.50;43.27;100827.19;4460112;31;33315;-83
2022/03/02 01:55:09;;;;;;;12.40;4.62;;;;;;;1.62;42.85;100816.87;4458795;31;34388;-83
2022/03/02 01:57:36;;;;;;;9.90;4.43;;;;;;;1.69;42.65;100810.00;4471620;32;34940;-83
2022/03/02 02:00:08;;;;;;;17.55;3.60;;;;;;;1.70;41.88;100820.41;4452596;32;32789;-83
2022/03/02 02:02:36;;;;;;;7.18;3.72;;;;;;;1.70;41.61;100815.19;4463397;32;34272;-83
2022/03/02 02:05:04;;;;;;;9.98;3.67;;;;;;;1.30;43.02;100824.38;4471507;32;33501;-83
2022/03/02 02:07:31;;;;;;;7.55;4.05;;;;;;;1.53;42.36;100822.88;4458295;32;34198;-83
2022/03/02 02:10:00;;;;;;;8.85;3.87;;;;;;;1.53;42.66;100814.19;4461929;31;33442;-83
2022/03/02 02:12:27;;;;;;;8.65;4.22;;;;;;;1.52;42.67;100809.87;4464284;32;32877;-83
2022/03/02 02:14:55;;;;;;;9.07;3.87;;;;;;;1.35;42.75;100808.81;4471688;31;32873;-83
2022/03/02 02:17:22;;;;;;;7.03;3.60;;;;;;;1.26;42.64;100813.06;4461662;32;34572;-84
2022/03/02 02:19:50;;;;;;;11.23;3.65;;;;;;;1.26;42.15;100812.19;4460101;32;33663;-84
2022/03/02 02:22:18;;;;;;;8.25;3.92;;;;;;;1.47;41.67;100807.22;4458060;32;32687;-84
2022/03/02 02:24:46;;;;;;;7.85;3.83;;;;;;;1.43;42.23;100812.38;4445267;32;33752;-85
2022/03/02 02:27:15;;;;;;;7.72;3.42;;;;;;;1.36;42.61;100802.75;4458338;32;34712;-84
2022/03/02 02:29:44;;;;;;;7.37;3.47;;;;;;;1.20;42.92;100815.59;4445371;32;33159;-84
2022/03/02 02:32:14;;;;;;;8.48;4.35;;;;;;;1.46;42.55;100809.78;4458917;32;33296;-85
2022/03/02 02:34:41;;;;;;;9.63;3.67;;;;;;;1.65;42.29;100809.09;4457990;32;33397;-85
2022/03/02 02:37:09;;;;;;;7.72;3.50;;;;;;;1.32;43.29;100806.19;4445155;32;33917;-85
2022/03/02 02:39:38;;;;;;;10.50;4.43;;;;;;;0.99;44.20;100812.75;4458019;32;32681;-85
2022/03/02 02:42:07;;;;;;;14.23;4.78;;;;;;;1.01;44.33;100811.94;4445873;31;32618;-85
2022/03/02 02:44:36;;;;;;;9.95;3.62;;;;;;;1.02;44.22;100813.66;4457217;32;33431;-85
2022/03/02 02:47:04;;;;;;;7.65;3.40;;;;;;;1.04;43.78;100811.06;4461541;32;32806;-85
2022/03/02 02:49:32;;;;;;;7.40;4.03;;;;;;;1.04;43.60;100816.28;4454604;32;33290;-85
2022/03/02 02:51:59;;;;;;;8.82;3.92;;;;;;;1.00;43.73;100810.19;4450779;32;33867;-85
2022/03/02 02:54:27;;;;;;;10.38;3.95;;;;;;;1.10;43.21;100803.37;4461631;32;33992;-85
2022/03/02 02:56:55;;;;;;;8.43;3.80;;;;;;;0.84;43.28;100804.78;4451170;32;33251;-85
2022/03/02 02:59:22;;;;;;;14.90;4.10;;;;;;;1.17;42.60;100818.16;4471696;32;32366;-85
2022/03/02 03:01:51;;;;;;;13.60;4.80;;;;;;;0.92;44.06;100808.34;4459118;32;33771;-85
2022/03/02 03:04:18;;;;;;;4.93;2.95;;;;;;;0.88;43.91;100812.63;4469341;31;32686;-85
2022/03/02 03:06:46;;;;;;;10.48;3.50;;;;;;;0.86;43.96;100814.38;4455672;32;33748;-85
2022/03/02 03:09:16;;;;;;;8.88;3.40;;;;;;;0.90;44.12;100817.84;4458784;32;32991;-85
2022/03/02 03:11:44;;;;;;;9.13;3.45;;;;;;;0.82;43.86;100809.09;4455885;32;31969;-85
2022/03/02 03:14:13;;;;;;;10.27;3.67;;;;;;;0.61;43.86;100815.75;4457845;32;34163;-85
2022/03/02 03:16:41;;;;;;;12.55;3.50;;;;;;;0.94;43.36;100815.31;4471258;32;33362;-85
2022/03/02 03:19:10;;;;;;;8.10;3.87;;;;;;;0.66;44.10;100813.22;4459428;32;33858;-85
2022/03/02 03:21:37;;;;;;;6.87;3.75;;;;;;;0.57;44.78;100814.00;4472680;32;34124;-84
2022/03/02 03:24:05;;;;;;;7.45;3.35;;;;;;;0.71;44.02;100815.06;4459652;32;33280;-84
2022/03/02 03:26:32;;;;;;;8.00;3.62;;;;;;;0.61;44.73;100815.75;4459908;32;34315;-84
2022/03/02 03:29:00;;;;;;;6.78;3.50;;;;;;;0.61;44.66;100815.75;4463448;32;32994;-84
2022/03/02 03:31:28;;;;;;;6.82;3.15;;;;;;;0.51;44.43;100819.09;4483469;32;35463;-84
2022/03/02 03:33:55;;;;;;;11.98;3.50;;;;;;;0.63;44.04;100811.47;4456056;31;33184;-84
2022/03/02 03:36:23;;;;;;;11.82;3.62;;;;;;;0.76;43.67;100804.72;4457339;32;33377;-84
2022/03/02 03:38:51;;;;;;;10.70;3.58;;;;;;;0.82;43.13;100811.72;4450720;32;32874;-84
2022/03/02 03:41:18;;;;;;;10.32;3.35;;;;;;;0.62;43.80;100820.13;4473248;32;33533;-83
2022/03/02 03:43:47;;;;;;;8.55;3.60;;;;;;;0.70;43.51;100815.88;4472567;32;34277;-83
2022/03/02 03:46:15;;;;;;;7.60;3.70;;;;;;;0.66;44.34;100813.22;4472501;32;33645;-83
2022/03/02 03:48:42;;;;;;;7.55;3.47;;;;;;;0.62;44.23;100811.44;4464881;31;33961;-83
2022/03/02 03:51:10;;;;;;;8.45;2.80;;;;;;;1.02;43.39;100799.81;4472260;31;33230;-83
2022/03/02 03:53:37;;;;;;;7.40;3.37;;;;;;;0.64;44.50;100802.81;4470878;32;34285;-83
2022/03/02 03:56:05;;;;;;;9.18;3.42;;;;;;;0.65;45.07;100801.09;4459402;31;33358;-83
2022/03/02 03:58:33;;;;;;;4.60;3.05;;;;;;;0.81;44.13;100797.84;4472237;32;33848;-83
2022/03/02 04:01:01;;;;;;;5.55;3.53;;;;;;;0.53;44.28;100804.41;4452836;32;32798;-83
2022/03/02 04:03:29;;;;;;;8.38;3.30;;;;;;;0.51;44.37;100808.72;4460549;31;33867;-83
2022/03/02 04:05:56;;;;;;;6.47;3.15;;;;;;;0.73;43.63;100794.28;4471809;32;33810;-83
2022/03/02 04:08:24;;;;;;;6.90;2.97;;;;;;;0.59;43.92;100801.88;4458489;32;33203;-83
2022/03/02 04:10:52;;;;;;;10.00;4.57;;;;;;;0.66;43.58;100795.03;4454580;32;33117;-83
2022/03/02 04:13:19;;;;;;;9.65;3.70;;;;;;;0.51;43.93;100799.19;4475960;32;33841;-83
2022/03/02 04:15:47;;;;;;;6.68;3.40;;;;;;;0.34;44.16;100795.50;4461998;32;33558;-83
2022/03/02 04:18:15;;;;;;;6.95;3.50;;;;;;;0.56;43.74;100791.44;4475997;32;33432;-83
2022/03/02 04:20:42;;;;;;;14.50;3.87;;;;;;;0.58;43.90;100794.94;4448053;32;33223;-83
2022/03/02 04:23:10;;;;;;;7.85;3.97;;;;;;;0.64;43.89;100791.56;4471850;32;34600;-82
2022/03/02 04:25:39;;;;;;;5.82;3.70;;;;;;;0.57;44.28;100788.00;4476287;32;33906;-83
2022/03/02 04:28:06;;;;;;;10.20;3.87;;;;;;;0.56;43.93;100791.44;4450687;31;34112;-83
2022/03/02 04:30:34;;;;;;;10.23;3.45;;;;;;;0.39;44.53;100788.66;4462770;32;34088;-83
2022/03/02 04:33:01;;;;;;;10.80;4.93;;;;;;;0.62;44.29;100791.53;4463656;31;32434;-83
2022/03/02 04:35:31;;;;;;;10.20;3.40;;;;;;;0.43;44.74;100792.16;4458772;32;34026;-83
2022/03/02 04:37:59;;;;;;;6.40;3.47;;;;;;;0.45;44.65;100793.03;4461608;31;33791;-83
2022/03/02 04:40:27;;;;;;;8.10;3.17;;;;;;;0.31;44.79;100791.97;4466157;32;33963;-82
2022/03/02 04:42:55;;;;;;;8.43;3.17;;;;;;;0.43;44.88;100789.56;4471444;32;33073;-83
2022/03/02 04:45:25;;;;;;;8.45;3.87;;;;;;;0.51;44.37;100782.72;4459427;32;34720;-83
2022/03/02 04:47:59;;;;;;;8.65;3.70;;;;;;;0.68;44.14;100776.00;4464545;32;32938;-83
2022/03/02 04:50:27;;;;;;;6.32;3.85;;;;;;;0.25;46.12;100775.47;4462331;32;33605;-83
2022/03/02 04:52:56;;;;;;;11.60;4.85;;;;;;;0.14;46.41;100777.06;4464966;32;33080;-83
2022/03/02 04:55:23;;;;;;;8.32;3.22;;;;;;;0.20;46.21;100777.13;4457714;31;33913;-84
2022/03/02 04:57:56;;;;;;;12.30;4.53;;;;;;;0.39;45.98;100772.19;4474221;32;33549;-84
2022/03/02 05:00:33;;;;;;;10.10;3.67;;;;;;;0.29;46.05;100770.31;4471944;32;32471;-83
2022/03/02 05:03:04;;;;;;;13.75;3.72;;;;;;;0.20;46.00;100769.34;4459452;32;33968;-83
2022/03/02 05:05:37;;;;;;;12.00;4.35;;;;;;;0.21;46.19;100762.41;4472190;32;33167;-84
2022/03/02 05:08:06;;;;;;;7.85;3.03;;;;;;;-0.01;47.05;100763.81;4472390;32;33052;-83
2022/03/02 05:10:34;;;;;;;10.77;4.00;;;;;;;0.00;47.20;100760.41;4451819;32;33639;-83
2022/03/02 05:13:02;;;;;;;6.12;3.78;;;;;;;0.32;46.29;100759.94;4458361;32;33442;-83
2022/03/02 05:15:30;;;;;;;5.07;3.72;;;;;;;0.22;46.19;100770.22;4474670;32;33584;-84
2022/03/02 05:17:59;;;;;;;8.63;4.00;;;;;;;-0.04;47.24;100766.41;4471637;32;33755;-83
2022/03/02 05:20:27;;;;;;;12.75;4.03;;;;;;;0.35;45.95;100773.00;4467837;32;33519;-82
2022/03/02 05:22:54;;;;;;;7.97;3.65;;;;;;;0.24;46.04;100768.53;4459150;32;33815;-83
2022/03/02 05:25:24;;;;;;;4.87;3.30;;;;;;;0.24;46.18;100765.06;4463381;31;34548;-83
2022/03/02 05:27:51;;;;;;;10.50;3.95;;;;;;;-0.07;46.93;100771.53;4455607;32;33037;-82
2022/03/02 05:30:20;;;;;;;8.20;3.67;;;;;;;-0.04;47.01;100761.19;4470538;31;32428;-83
2022/03/02 05:32:48;;;;;;;10.45;3.65;;;;;;;0.06;46.50;100767.41;4463195;31;33375;-83
2022/03/02 05:35:16;;;;;;;9.38;3.53;;;;;;;0.12;46.63;100763.16;4464104;31;33817;-84
2022/03/02 05:37:45;;;;;;;7.90;4.55;;;;;;;0.27;46.52;100761.63;4474925;31;34156;-83
2022/03/02 05:40:17;;;;;;;9.00;3.90;;;;;;;0.25;46.71;100765.06;4462976;32;31837;-83
2022/03/02 05:42:53;;;;;;;10.25;4.78;;;;;;;0.07;47.02;100764.81;4459121;32;33041;-83
2022/03/02 05:45:22;;;;;;;10.75;4.62;;;;;;;0.38;46.65;100762.63;4457891;31;33922;-83
2022/03/02 05:47:49;;;;;;;17.17;4.95;;;;;;;0.20;47.25;100760.69;4470819;32;34335;-84
2022/03/02 05:50:17;;;;;;;13.82;4.20;;;;;;;0.11;47.42;100766.59;4460137;31;32577;-84
2022/03/02 05:52:45;;;;;;;7.78;3.85;;;;;;;0.11;47.53;100763.13;4462349;32;32723;-84
2022/03/02 05:55:12;;;;;;;8.80;3.33;;;;;;;0.06;47.55;100764.81;4468648;32;32802;-84
2022/03/02 05:57:39;;;;;;;12.20;4.03;;;;;;;0.30;47.12;100753.88;4457479;32;32640;-84
2022/03/02 06:00:08;;;;;;;8.27;4.57;;;;;;;0.21;47.35;100765.87;4451262;32;32062;-83
2022/03/02 06:02:37;;;;;;;7.00;3.67;;;;;;;0.35;46.61;100754.81;4457783;32;35196;-84
2022/03/02 06:05:09;;;;;;;13.57;4.55;;;;;;;0.35;47.23;100755.69;4447221;32;33041;-84
2022/03/02 06:07:37;;;;;;;10.07;4.05;;;;;;;0.32;47.41;100755.63;4458837;32;34541;-83
2022/03/02 06:10:05;;;;;;;8.68;4.03;;;;;;;0.38;47.46;100754.81;4459260;32;33869;-84
2022/03/02 06:12:33;;;;;;;7.82;3.97;;;;;;;0.54;46.79;100755.91;4445478;32;33225;-83
2022/03/02 06:15:01;;;;;;;13.20;4.07;;;;;;;0.56;47.66;100749.00;4445147;32;32628;-83
2022/03/02 06:17:29;;;;;;;7.90;4.07;;;;;;;0.41;47.91;100754.88;4453225;32;33095;-83
2022/03/02 06:19:57;;;;;;;10.63;4.12;;;;;;;0.83;46.97;100751.91;4445323;32;32527;-84
2022/03/02 06:22:27;;;;;;;10.55;4.68;;;;;;;0.72;47.52;100759.59;4472157;32;34227;-83
2022/03/02 06:24:55;;;;;;;8.70;4.47;;;;;;;0.72;47.82;100751.81;4445472;32;32241;-84
2022/03/02 06:27:23;;;;;;;14.05;4.93;;;;;;;0.76;47.65;100758.78;4454078;31;32831;-83
2022/03/02 06:29:51;;;;;;;11.68;4.37;;;;;;;0.92;47.45;100756.34;4471026;31;32664;-84
2022/03/02 06:32:18;;;;;;;18.00;5.10;;;;;;;0.92;46.85;100758.94;4461625;31;34230;-85
2022/03/02 06:34:46;;;;;;;19.37;8.60;;;;;;;1.05;46.89;100745.22;4471943;32;33831;-85
2022/03/02 06:37:14;;;;;;;23.65;8.07;;;;;;;1.21;45.58;100744.50;4458188;32;32620;-85
2022/03/02 06:39:42;;;;;;;19.67;8.02;;;;;;;1.22;45.38;100753.19;4454730;32;33721;-85
2022/03/02 06:42:24;;;;;;;21.80;6.65;;;;;;;1.22;46.35;100759.25;4465220;32;32367;-85
2022/03/02 06:44:56;;;;;;;11.00;5.80;;;;;;;1.48;45.60;100762.09;4461562;32;34290;-86
2022/03/02 06:47:27;;;;;;;13.80;4.90;;;;;;;1.60;44.79;100763.06;4446087;32;33691;-86
2022/03/02 06:50:09;;;;;;;12.13;3.53;;;;;;;1.83;43.57;100755.41;4462772;31;33160;-86
2022/03/02 06:52:43;;;;;;;12.67;4.57;;;;;;;2.04;43.14;100745.13;4453444;32;32598;-87
2022/03/02 06:55:13;;;;;;;7.72;4.32;;;;;;;1.97;42.66;100745.97;4461128;32;33880;-87
2022/03/02 06:57:40;;;;;;;10.88;3.70;;;;;;;2.19;42.13;100740.03;4461602;31;32795;-86
2022/03/02 07:00:16;;;;;;;8.40;4.12;;;;;;;2.33;41.72;100739.19;4463623;31;32945;-86
2022/03/02 07:02:51;;;;;;;10.63;3.97;;;;;;;2.30;40.94;100738.34;4458965;31;34207;-86
2022/03/02 07:05:25;;;;;;;16.23;4.50;;;;;;;2.78;40.45;100736.78;4460474;31;33169;-86
2022/03/02 07:07:54;;;;;;;10.30;4.72;;;;;;;3.08;40.39;100737.72;4450835;32;32924;-86
2022/03/02 07:10:23;;;;;;;14.15;5.87;;;;;;;3.04;40.83;100731.66;4459433;32;32130;-86
2022/03/02 07:12:51;;;;;;;15.02;4.85;;;;;;;3.37;39.96;100731.66;4456721;32;33543;-86
2022/03/02 07:15:19;;;;;;;15.48;5.53;;;;;;;3.01;40.07;100738.59;4460048;32;33677;-86
2022/03/02 07:17:47;;;;;;;13.20;4.97;;;;;;;3.25;40.57;100727.31;4456264;31;32405;-86
2022/03/02 07:20:14;;;;;;;11.98;4.90;;;;;;;3.35;39.61;100718.63;4478979;32;33041;-86
2022/03/02 07:22:53;;;;;;;12.35;4.72;;;;;;;3.55;39.16;100719.47;4458567;32;32819;-86
2022/03/02 07:25:24;;;;;;;10.23;4.10;;;;;;;3.92;39.05;100718.56;4456269;32;33411;-86
2022/03/02 07:27:54;;;;;;;10.47;4.63;;;;;;;4.18;38.77;100711.56;4450646;32;32957;-86
2022/03/02 07:30:22;;;;;;;11.48;4.62;;;;;;;4.18;38.44;100710.66;4472157;32;32151;-86
2022/03/02 07:32:54;;;;;;;20.40;7.85;;;;;;;4.28;38.31;100701.94;4462846;32;32854;-86
2022/03/02 07:35:22;;;;;;;;;;;;;;;4.70;37.71;100706.09;4456787;32;33766;-86
2022/03/02 07:37:50;;;;;;;17.02;7.12;;;;;;;4.45;38.65;100701.84;4448500;32;32768;-85
2022/03/02 07:40:17;;;;;;;11.12;5.70;;;;;;;4.62;38.74;100700.91;4453114;32;31956;-86
2022/03/02 07:42:46;;;;;;;12.20;6.10;;;;;;;4.74;38.03;100699.97;4451722;31;34062;-86
2022/03/02 07:45:14;;;;;;;8.52;4.43;;;;;;;5.04;38.11;100705.91;4455878;31;32749;-86
2022/03/02 07:47:42;;;;;;;11.98;4.95;;;;;;;4.95;37.23;100700.72;4458542;32;33847;-86
2022/03/02 07:50:28;;;;;;;10.60;4.22;;;;;;;5.40;36.71;100689.91;4455963;31;32554;-86
2022/03/02 07:52:57;;;;;;;10.27;4.18;;;;;;;5.57;36.29;100696.75;4462846;32;33165;-86
2022/03/02 07:55:27;;;;;;;7.35;4.20;;;;;;;5.68;35.59;100692.28;4453697;32;33566;-86
2022/03/02 07:57:55;;;;;;;10.48;4.72;;;;;;;5.53;36.34;100689.81;4458263;32;33029;-86
2022/03/02 08:00:25;;;;;;;13.93;4.10;;;;;;;5.39;36.29;100688.16;4464909;32;32756;-86
2022/03/02 08:02:56;;;;;;;8.45;3.85;;;;;;;5.76;35.31;100682.59;4455687;32;32599;-86
2022/03/02 08:05:24;;;;;;;8.07;3.97;;;;;;;6.11;35.07;100681.37;4453742;32;32942;-86
2022/03/02 08:07:52;;;;;;;8.23;4.00;;;;;;;6.09;34.77;100675.28;4458003;32;33135;-86
2022/03/02 08:10:20;;;;;;;7.03;3.30;;;;;;;5.76;34.88;100666.88;4447913;32;32752;-86
2022/03/02 08:12:47;;;;;;;9.80;3.87;;;;;;;6.24;34.78;100666.38;4456662;32;33534;-86
2022/03/02 08:15:15;;;;;;;6.35;3.42;;;;;;;6.11;34.30;100663.03;4456349;32;32399;-86
2022/03/02 08:17:44;;;;;;;10.07;4.12;;;;;;;5.99;35.64;100665.81;4456748;32;33739;-86
2022/03/02 08:20:12;;;;;;;7.55;3.83;;;;;;;6.31;34.49;100665.41;4470003;32;33826;-86
2022/03/02 08:22:48;;;;;;;8.98;3.87;;;;;;;6.73;34.09;100661.34;4457313;32;34617;-86
2022/03/02 08:25:18;;;;;;;14.00;3.35;;;;;;;6.87;33.52;100656.75;4461318;32;33888;-86
2022/03/02 08:27:46;;;;;;;14.73;4.03;;;;;;;6.75;34.13;100651.69;4469632;32;33715;-86
2022/03/02 08:30:15;;;;;;;8.18;3.92;;;;;;;6.72;33.37;100653.50;4456512;32;32143;-86
2022/03/02 08:32:46;;;;;;;7.30;3.65;;;;;;;6.76;33.57;100648.19;4457810;32;32853;-86
2022/03/02 08:35:14;;;;;;;9.18;3.90;;;;;;;6.83;34.06;100639.31;4458649;32;33351;-87
2022/03/02 08:37:42;;;;;;;9.55;3.90;;;;;;;7.00;33.62;100640.81;4467295;32;34391;-86
2022/03/02 08:40:11;;;;;;;6.72;3.80;;;;;;;7.26;33.17;100643.03;4469506;32;34386;-86
2022/03/02 08:42:39;;;;;;;7.95;3.95;;;;;;;7.46;32.64;100645.34;4460591;32;32845;-87
2022/03/02 08:45:07;;;;;;;8.65;3.70;;;;;;;7.37;33.79;100635.84;4457169;32;33946;-86
2022/03/02 08:47:36;;;;;;;10.57;3.95;;;;;;;7.83;32.79;100635.00;4469407;32;33425;-86
2022/03/02 08:50:05;;;;;;;9.63;4.22;;;;;;;7.79;34.02;100622.81;4457081;32;34070;-86
2022/03/02 08:52:34;;;;;;;8.48;3.60;;;;;;;7.56;33.27;100620.63;4455694;32;34740;-86
2022/03/02 08:55:05;;;;;;;6.07;3.22;;;;;;;7.77;32.81;100612.31;4457511;32;33077;-86
2022/03/02 08:57:34;;;;;;;5.68;3.40;;;;;;;7.77;32.30;100614.09;4456661;32;33582;-86
2022/03/02 09:00:07;;;;;;;6.87;3.50;;;;;;;8.13;31.92;100602.84;4456464;32;33296;-86
2022/03/02 09:02:37;;;;;;;7.03;3.35;;;;;;;7.87;31.78;100605.97;4457233;32;34385;-86
2022/03/02 09:05:06;;;;;;;8.38;3.67;;;;;;;8.26;31.75;100603.44;4469120;32;33699;-86
2022/03/02 09:07:35;;;;;;;8.63;4.55;;;;;;;8.56;31.50;100601.94;4468948;32;34589;-87
2022/03/02 09:10:04;;;;;;;5.65;3.25;;;;;;;8.56;31.18;100590.53;4455945;32;31907;-86
2022/03/02 09:12:33;;;;;;;12.95;5.20;;;;;;;8.40;30.88;100597.91;4462706;32;32850;-86
2022/03/02 09:15:01;;;;;;;6.95;2.95;;;;;;;8.76;30.93;100590.06;4468576;32;34184;-86
2022/03/02 09:17:29;;;;;;;8.98;4.03;;;;;;;8.37;31.61;100593.56;4475177;32;33564;-86
2022/03/02 09:19:57;;;;;;;8.15;3.65;;;;;;;8.28;30.42;100591.12;4463915;32;32487;-86
2022/03/02 09:22:27;;;;;;;9.07;4.22;;;;;;;8.45;30.65;100598.66;4469801;32;33747;-86
2022/03/02 09:24:56;;;;;;;5.65;3.28;;;;;;;9.05;29.99;100590.22;4468789;32;33630;-86
2022/03/02 09:27:27;;;;;;;7.07;3.30;;;;;;;9.25;29.64;100584.44;4456638;32;33302;-86
2022/03/02 09:30:00;;;;;;;6.90;3.00;;;;;;;9.55;29.65;100576.66;4461814;32;33541;-87
2022/03/02 09:32:30;;;;;;;9.57;3.83;;;;;;;8.89;30.21;100578.34;4462768;32;34214;-87
2022/03/02 09:34:59;;;;;;;4.72;2.45;;;;;;;9.35;28.35;100570.16;4457575;32;34208;-86
2022/03/02 09:37:34;;;;;;;7.55;3.53;;;;;;;9.53;29.25;100566.13;4455737;32;34302;-87
2022/03/02 09:40:04;;;;;;;6.18;3.10;;;;;;;9.63;28.77;100572.03;4453012;32;32614;-86
2022/03/02 09:42:39;;;;;;;8.10;3.33;;;;;;;9.59;28.03;100567.72;4463222;32;32915;-86
2022/03/02 09:45:11;;;;;;;5.87;2.97;;;;;;;9.51;29.07;100567.09;4470309;32;34271;-86
2022/03/02 09:47:50;;;;;;;10.03;3.73;;;;;;;8.78;29.15;100583.84;4443508;32;33123;-86
2022/03/02 09:50:19;;;;;;;6.80;3.62;;;;;;;8.98;30.76;100576.34;4469252;32;31864;-86
2022/03/02 09:52:48;;;;;;;10.18;3.80;;;;;;;9.37;29.81;100565.69;4455397;32;35034;-86
2022/03/02 09:55:21;;;;;;;11.15;3.10;;;;;;;9.62;28.11;100567.66;4468395;32;33905;-86
2022/03/02 09:57:52;;;;;;;11.40;3.80;;;;;;;9.86;29.18;100559.06;4449683;32;33851;-87
2022/03/02 10:00:21;;;;;;;7.53;4.22;;;;;;;9.72;28.81;100561.22;4467867;32;33958;-86
2022/03/02 10:02:55;;;;;;;9.32;4.35;;;;;;;10.16;28.84;100557.31;4446072;32;34707;-87
2022/03/02 10:05:28;;;;;;;5.28;2.85;;;;;;;10.48;28.50;100553.69;4440447;32;33457;-86
2022/03/02 10:07:59;;;;;;;8.32;3.70;;;;;;;10.75;26.46;100551.09;4429681;32;32590;-86
2022/03/02 10:10:31;;;;;;;6.43;3.72;;;;;;;10.24;26.57;100551.81;4430605;32;31984;-86
2022/03/02 10:13:04;;;;;;;9.60;4.45;;;;;;;9.80;27.99;100548.69;4441719;32;32915;-86
2022/03/02 10:15:32;;;;;;;8.75;4.15;;;;;;;8.57;28.70;100550.16;4455638;32;33988;-87
2022/03/02 10:18:07;;;;;;;7.12;3.00;;;;;;;9.18;28.76;100549.50;4470042;32;33403;-86
2022/03/02 10:20:38;;;;;;;7.87;3.33;;;;;;;9.43;28.63;100541.78;4441202;32;33919;-86
2022/03/02 10:23:40;;;;;;;7.53;4.05;;;;;;;9.49;28.06;100539.00;4440949;32;33744;-87
2022/03/02 10:26:08;;;;;;;5.82;3.17;;;;;;;9.88;28.49;100530.88;4459416;32;34815;-87
2022/03/02 10:28:47;;;;;;;6.62;3.05;;;;;;;10.00;29.36;100533.13;4452587;32;33622;-87
2022/03/02 10:31:38;;;;;;;8.18;3.53;;;;;;;9.90;27.95;100528.19;4450192;32;33395;-86
2022/03/02 10:34:16;;;;;;;7.50;3.35;;;;;;;9.42;29.69;100528.66;4458821;32;33171;-86
2022/03/02 10:36:46;;;;;;;6.32;3.30;;;;;;;9.80;29.50;100517.03;4452291;32;33234;-87
2022/03/02 10:39:33;;;;;;;7.70;3.87;;;;;;;10.29;28.12;100510.31;4440410;32;33508;-87
2022/03/02 10:42:04;;;;;;;8.02;3.92;;;;;;;10.86;25.28;100506.69;4452605;32;33702;-87
2022/03/02 10:44:56;;;;;;;5.28;3.40;;;;;;;10.12;25.98;100505.53;4458636;32;34882;-86
2022/03/02 10:47:24;;;;;;;9.70;3.65;;;;;;;10.87;25.82;100497.87;4447912;32;33373;-86
2022/03/02 10:49:54;;;;;;;5.97;3.30;;;;;;;10.43;28.08;100500.19;4455922;32;32697;-86
2022/03/02 10:52:22;;;;;;;9.48;3.83;;;;;;;11.18;25.16;100488.88;4446996;32;32282;-86
2022/03/02 10:54:50;;;;;;;6.18;3.97;;;;;;;10.81;26.93;100489.28;4455897;32;33638;-86
2022/03/02 10:57:19;;;;;;;8.20;4.32;;;;;;;10.98;25.33;100489.56;4442888;32;34408;-86
2022/03/02 10:59:47;;;;;;;6.37;3.37;;;;;;;11.27;24.89;100473.56;4440125;32;32928;-87
2022/03/02 11:06:37;;;;;;;9.63;4.35;;;;;;;10.94;26.07;100467.69;4484353;31;34610;-86
2022/03/02 11:09:05;;;;;;;7.18;3.62;;;;;;;11.48;24.65;100449.88;4462168;32;34217;-88
2022/03/02 11:11:35;;;;;;;7.62;3.90;;;;;;;11.51;25.55;100450.63;4457162;31;34430;-88
2022/03/02 11:14:04;;;;;;;8.48;4.37;;;;;;;11.36;25.96;100451.22;4444799;32;32357;-88
2022/03/02 11:16:32;;;;;;;8.20;3.70;;;;;;;11.42;27.52;100450.97;4454914;32;33154;-88
2022/03/02 11:19:16;;;;;;;5.75;3.35;;;;;;;12.03;25.42;100445.19;4472190;32;34142;-87
2022/03/02 11:21:44;;;;;;;7.07;3.83;;;;;;;12.40;24.11;100444.56;4477384;32;34284;-87
2022/03/02 11:24:16;;;;;;;9.43;3.42;;;;;;;12.63;23.61;100429.47;4446398;32;32320;-87
2022/03/02 11:26:49;;;;;;;6.15;3.25;;;;;;;11.51;26.63;100434.78;4461887;31;33564;-87
2022/03/02 11:29:30;;;;;;;8.38;3.42;;;;;;;12.32;24.61;100436.06;4465581;31;33744;-87
2022/03/02 11:31:58;;;;;;;7.45;3.65;;;;;;;12.10;27.28;100429.91;4450043;32;32121;-87
2022/03/02 11:34:27;;;;;;;7.72;3.80;;;;;;;12.56;24.16;100419.16;4466295;32;31793;-87
2022/03/02 11:36:58;;;;;;;7.50;3.80;;;;;;;12.72;22.92;100421.16;4459502;32;32869;-87
2022/03/02 11:39:28;;;;;;;6.90;3.70;;;;;;;12.32;23.67;100409.59;4457031;31;33353;-87
2022/03/02 11:42:01;;;;;;;4.80;2.95;;;;;;;12.00;25.47;100414.38;4452439;32;32637;-87
2022/03/02 11:44:31;;;;;;;7.55;3.60;;;;;;;12.15;23.38;100404.97;4459695;31;33868;-87